sensor_id;sensor_type;location;lat;lon;timestamp;pressure;altitude;pressure_sealevel;temperature;humidity
60019;BME280;45870;42.528;26.740;2023-04-30T00:01:08;99457.38;;;13.14;43.66
60019;BME280;45870;42.528;26.740;2023-04-30T00:03:33;99462.50;;;13.42;42.02
60019;BME280;45870;42.528;26.740;2023-04-30T00:05:59;99451.97;;;12.92;43.57
60019;BME280;45870;42.528;26.740;2023-04-30T00:08:25;99447.34;;;13.46;42.12
60019;BME280;45870;42.528;26.740;2023-04-30T00:10:51;99444.88;;;13.13;42.79
60019;BME280;45870;42.528;26.740;2023-04-30T00:13:16;99441.75;;;12.29;45.95
60019;BME280;45870;42.528;26.740;2023-04-30T00:15:43;99440.50;;;12.85;44.47
60019;BME280;45870;42.528;26.740;2023-04-30T00:18:08;99447.44;;;11.72;46.24
60019;BME280;45870;42.528;26.740;2023-04-30T00:20:35;99443.16;;;12.31;44.79
60019;BME280;45870;42.528;26.740;2023-04-30T00:23:00;99433.22;;;12.64;44.69
60019;BME280;45870;42.528;26.740;2023-04-30T00:25:26;99383.28;;;12.06;44.62
60019;BME280;45870;42.528;26.740;2023-04-30T00:27:51;99440.47;;;13.07;43.17
60019;BME280;45870;42.528;26.740;2023-04-30T00:30:17;99430.56;;;11.82;46.74
60019;BME280;45870;42.528;26.740;2023-04-30T00:32:43;99438.09;;;12.18;45.97
60019;BME280;45870;42.528;26.740;2023-04-30T00:35:10;99436.81;;;12.91;44.05
60019;BME280;45870;42.528;26.740;2023-04-30T00:37:36;99435.13;;;12.63;43.89
60019;BME280;45870;42.528;26.740;2023-04-30T00:40:02;99441.44;;;11.70;46.52
60019;BME280;45870;42.528;26.740;2023-04-30T00:42:28;99433.22;;;12.64;44.27
60019;BME280;45870;42.528;26.740;2023-04-30T00:44:53;99433.00;;;12.92;43.84
60019;BME280;45870;42.528;26.740;2023-04-30T00:47:19;99430.75;;;13.37;43.32
60019;BME280;45870;42.528;26.740;2023-04-30T00:49:45;99438.19;;;13.52;43.25
60019;BME280;45870;42.528;26.740;2023-04-30T00:52:12;99444.41;;;13.21;44.32
60019;BME280;45870;42.528;26.740;2023-04-30T00:54:37;99432.09;;;13.35;43.90
60019;BME280;45870;42.528;26.740;2023-04-30T00:57:04;99435.47;;;13.52;44.20
60019;BME280;45870;42.528;26.740;2023-04-30T00:59:32;99431.94;;;13.51;43.83
60019;BME280;45870;42.528;26.740;2023-04-30T01:01:58;99432.84;;;13.62;43.87
60019;BME280;45870;42.528;26.740;2023-04-30T01:04:23;99403.81;;;13.58;44.01
60019;BME280;45870;42.528;26.740;2023-04-30T01:06:49;99424.59;;;13.84;43.69
60019;BME280;45870;42.528;26.740;2023-04-30T01:09:15;99424.53;;;13.74;43.84
60019;BME280;45870;42.528;26.740;2023-04-30T01:11:49;99426.78;;;13.87;43.45
60019;BME280;45870;42.528;26.740;2023-04-30T01:14:27;99421.25;;;13.72;44.13
60019;BME280;45870;42.528;26.740;2023-04-30T01:17:00;99416.84;;;13.66;44.19
60019;BME280;45870;42.528;26.740;2023-04-30T01:19:47;99418.81;;;12.58;46.85
60019;BME280;45870;42.528;26.740;2023-04-30T01:25:10;99418.66;;;13.92;43.63
60019;BME280;45870;42.528;26.740;2023-04-30T01:30:11;99422.84;;;14.10;43.38
60019;BME280;45870;42.528;26.740;2023-04-30T01:32:37;99420.38;;;14.03;43.73
60019;BME280;45870;42.528;26.740;2023-04-30T01:35:03;99419.88;;;14.16;42.86
60019;BME280;45870;42.528;26.740;2023-04-30T01:40:31;99418.59;;;13.40;45.22
60019;BME280;45870;42.528;26.740;2023-04-30T01:43:33;99421.19;;;14.04;43.78
60019;BME280;45870;42.528;26.740;2023-04-30T01:46:09;99415.84;;;14.24;42.78
60019;BME280;45870;42.528;26.740;2023-04-30T01:48:45;99413.59;;;14.06;43.11
60019;BME280;45870;42.528;26.740;2023-04-30T01:53:41;99413.06;;;13.67;44.74
60019;BME280;45870;42.528;26.740;2023-04-30T01:56:17;99401.88;;;13.95;43.94
60019;BME280;45870;42.528;26.740;2023-04-30T01:58:48;99389.44;;;13.57;44.21
60019;BME280;45870;42.528;26.740;2023-04-30T02:01:28;99406.75;;;13.93;43.78
60019;BME280;45870;42.528;26.740;2023-04-30T02:03:54;99409.22;;;14.05;43.30
60019;BME280;45870;42.528;26.740;2023-04-30T02:06:19;99410.03;;;14.00;43.30
60019;BME280;45870;42.528;26.740;2023-04-30T02:08:45;99411.00;;;13.84;43.46
60019;BME280;45870;42.528;26.740;2023-04-30T02:11:11;99414.13;;;13.61;43.67
60019;BME280;45870;42.528;26.740;2023-04-30T02:13:37;99408.84;;;13.81;43.14
60019;BME280;45870;42.528;26.740;2023-04-30T02:16:03;99410.38;;;13.67;44.08
60019;BME280;45870;42.528;26.740;2023-04-30T02:18:29;99414.22;;;13.76;43.65
60019;BME280;45870;42.528;26.740;2023-04-30T02:20:55;99406.69;;;12.87;45.62
60019;BME280;45870;42.528;26.740;2023-04-30T02:23:20;99397.38;;;12.51;45.81
60019;BME280;45870;42.528;26.740;2023-04-30T02:25:46;99394.16;;;13.08;44.13
60019;BME280;45870;42.528;26.740;2023-04-30T02:28:12;99403.09;;;13.09;43.32
60019;BME280;45870;42.528;26.740;2023-04-30T02:30:37;99407.91;;;12.75;44.12
60019;BME280;45870;42.528;26.740;2023-04-30T02:33:03;99416.19;;;12.90;42.68
60019;BME280;45870;42.528;26.740;2023-04-30T02:35:29;99402.81;;;13.05;42.92
60019;BME280;45870;42.528;26.740;2023-04-30T02:37:55;99401.94;;;13.26;42.35
60019;BME280;45870;42.528;26.740;2023-04-30T02:40:20;99397.59;;;13.25;42.45
60019;BME280;45870;42.528;26.740;2023-04-30T02:42:46;99407.84;;;13.23;43.13
60019;BME280;45870;42.528;26.740;2023-04-30T02:45:12;99403.69;;;13.47;42.55
60019;BME280;45870;42.528;26.740;2023-04-30T02:47:38;99405.66;;;12.93;43.59
60019;BME280;45870;42.528;26.740;2023-04-30T02:50:04;99393.84;;;12.51;44.26
60019;BME280;45870;42.528;26.740;2023-04-30T02:52:30;99401.22;;;12.82;43.85
60019;BME280;45870;42.528;26.740;2023-04-30T02:54:56;99408.09;;;12.95;43.59
60019;BME280;45870;42.528;26.740;2023-04-30T02:57:22;99408.97;;;12.74;43.54
60019;BME280;45870;42.528;26.740;2023-04-30T02:59:47;99405.78;;;12.77;43.33
60019;BME280;45870;42.528;26.740;2023-04-30T03:02:13;99411.19;;;12.77;43.18
60019;BME280;45870;42.528;26.740;2023-04-30T03:04:39;99407.97;;;12.80;43.48
60019;BME280;45870;42.528;26.740;2023-04-30T03:07:04;99404.28;;;12.91;43.26
60019;BME280;45870;42.528;26.740;2023-04-30T03:09:31;99402.53;;;13.07;43.30
60019;BME280;45870;42.528;26.740;2023-04-30T03:11:56;99411.94;;;12.99;43.30
60019;BME280;45870;42.528;26.740;2023-04-30T03:14:22;99410.50;;;12.91;43.87
60019;BME280;45870;42.528;26.740;2023-04-30T03:16:48;99412.16;;;12.92;43.81
60019;BME280;45870;42.528;26.740;2023-04-30T03:19:13;99414.81;;;12.87;43.84
60019;BME280;45870;42.528;26.740;2023-04-30T03:21:39;99415.84;;;13.08;43.61
60019;BME280;45870;42.528;26.740;2023-04-30T03:24:05;99413.31;;;13.28;43.45
60019;BME280;45870;42.528;26.740;2023-04-30T03:26:31;99411.88;;;13.52;42.54
60019;BME280;45870;42.528;26.740;2023-04-30T03:28:57;99422.78;;;13.58;43.36
60019;BME280;45870;42.528;26.740;2023-04-30T03:31:22;99414.66;;;12.72;46.00
60019;BME280;45870;42.528;26.740;2023-04-30T03:33:48;99415.16;;;12.96;45.80
60019;BME280;45870;42.528;26.740;2023-04-30T03:36:14;99418.31;;;15.28;42.60
60019;BME280;45870;42.528;26.740;2023-04-30T03:38:40;99422.09;;;16.77;40.44
60019;BME280;45870;42.528;26.740;2023-04-30T03:41:07;99434.44;;;18.10;38.04
60019;BME280;45870;42.528;26.740;2023-04-30T03:43:32;99417.13;;;18.67;34.64
60019;BME280;45870;42.528;26.740;2023-04-30T03:45:58;99426.84;;;19.66;34.81
60019;BME280;45870;42.528;26.740;2023-04-30T03:48:24;99432.03;;;20.82;32.80
60019;BME280;45870;42.528;26.740;2023-04-30T03:50:49;99433.19;;;21.83;30.11
60019;BME280;45870;42.528;26.740;2023-04-30T03:53:15;99430.53;;;22.71;28.53
60019;BME280;45870;42.528;26.740;2023-04-30T03:55:41;99427.19;;;23.08;27.71
60019;BME280;45870;42.528;26.740;2023-04-30T03:58:06;99432.56;;;23.56;26.78
60019;BME280;45870;42.528;26.740;2023-04-30T04:00:32;99440.34;;;25.44;24.96
60019;BME280;45870;42.528;26.740;2023-04-30T04:02:58;99447.31;;;26.40;23.64
60019;BME280;45870;42.528;26.740;2023-04-30T04:05:24;99439.19;;;27.31;22.92
60019;BME280;45870;42.528;26.740;2023-04-30T04:07:50;99446.59;;;27.67;22.13
60019;BME280;45870;42.528;26.740;2023-04-30T04:10:16;99442.28;;;27.98;21.52
60019;BME280;45870;42.528;26.740;2023-04-30T04:12:42;99444.66;;;25.32;24.23
60019;BME280;45870;42.528;26.740;2023-04-30T04:15:08;99448.91;;;27.25;22.59
60019;BME280;45870;42.528;26.740;2023-04-30T04:17:34;99449.63;;;25.18;23.95
60019;BME280;45870;42.528;26.740;2023-04-30T04:19:59;99448.50;;;26.99;21.93
60019;BME280;45870;42.528;26.740;2023-04-30T04:22:25;99450.91;;;26.40;22.67
60019;BME280;45870;42.528;26.740;2023-04-30T04:24:50;99457.75;;;24.94;24.18
60019;BME280;45870;42.528;26.740;2023-04-30T04:27:16;99457.63;;;24.91;24.59
60019;BME280;45870;42.528;26.740;2023-04-30T04:29:43;99456.50;;;25.74;23.94
60019;BME280;45870;42.528;26.740;2023-04-30T04:32:08;99458.16;;;25.88;23.02
60019;BME280;45870;42.528;26.740;2023-04-30T04:34:34;99467.28;;;25.47;23.46
60019;BME280;45870;42.528;26.740;2023-04-30T04:37:00;99456.13;;;24.09;25.22
60019;BME280;45870;42.528;26.740;2023-04-30T04:39:25;99432.88;;;23.03;26.96
60019;BME280;45870;42.528;26.740;2023-04-30T04:41:51;99464.59;;;22.53;27.77
60019;BME280;45870;42.528;26.740;2023-04-30T04:44:17;99456.16;;;22.49;28.24
60019;BME280;45870;42.528;26.740;2023-04-30T04:46:42;99455.88;;;23.07;26.85
60019;BME280;45870;42.528;26.740;2023-04-30T04:49:08;99448.94;;;23.44;26.60
60019;BME280;45870;42.528;26.740;2023-04-30T04:51:34;99464.25;;;22.85;28.02
60019;BME280;45870;42.528;26.740;2023-04-30T04:54:00;99456.53;;;23.21;27.01
60019;BME280;45870;42.528;26.740;2023-04-30T04:56:25;99453.81;;;23.64;27.26
60019;BME280;45870;42.528;26.740;2023-04-30T04:58:51;99459.22;;;24.07;26.86
60019;BME280;45870;42.528;26.740;2023-04-30T05:01:17;99453.25;;;24.52;26.01
60019;BME280;45870;42.528;26.740;2023-04-30T05:03:43;99458.19;;;24.67;26.15
60019;BME280;45870;42.528;26.740;2023-04-30T05:06:08;99461.72;;;25.05;26.25
60019;BME280;45870;42.528;26.740;2023-04-30T05:08:34;99469.97;;;25.34;25.72
60019;BME280;45870;42.528;26.740;2023-04-30T05:11:00;99467.31;;;24.12;27.67
60019;BME280;45870;42.528;26.740;2023-04-30T05:13:26;99468.53;;;23.51;28.48
60019;BME280;45870;42.528;26.740;2023-04-30T05:15:52;99470.50;;;19.02;34.00
60019;BME280;45870;42.528;26.740;2023-04-30T05:18:19;99472.19;;;18.98;35.36
60019;BME280;45870;42.528;26.740;2023-04-30T05:20:44;99470.28;;;19.35;36.57
60019;BME280;45870;42.528;26.740;2023-04-30T05:23:10;99331.72;;;19.39;35.02
60019;BME280;45870;42.528;26.740;2023-04-30T05:25:37;99431.47;;;18.77;37.40
60019;BME280;45870;42.528;26.740;2023-04-30T05:28:02;99473.66;;;21.11;33.20
60019;BME280;45870;42.528;26.740;2023-04-30T05:30:29;99479.72;;;21.08;34.41
60019;BME280;45870;42.528;26.740;2023-04-30T05:32:54;99474.09;;;19.21;36.17
60019;BME280;45870;42.528;26.740;2023-04-30T05:35:21;99481.91;;;19.97;35.81
60019;BME280;45870;42.528;26.740;2023-04-30T05:37:46;99477.41;;;19.55;36.78
60019;BME280;45870;42.528;26.740;2023-04-30T05:40:13;99485.00;;;21.18;32.36
60019;BME280;45870;42.528;26.740;2023-04-30T05:42:39;99476.06;;;22.85;30.18
60019;BME280;45870;42.528;26.740;2023-04-30T05:45:08;99473.50;;;25.64;26.94
60019;BME280;45870;42.528;26.740;2023-04-30T05:47:34;99480.38;;;25.79;27.00
60019;BME280;45870;42.528;26.740;2023-04-30T05:49:59;99479.16;;;21.69;31.35
60019;BME280;45870;42.528;26.740;2023-04-30T05:52:25;99472.16;;;22.08;32.61
60019;BME280;45870;42.528;26.740;2023-04-30T05:54:51;99415.91;;;21.61;32.88
60019;BME280;45870;42.528;26.740;2023-04-30T05:57:17;99466.75;;;20.86;34.91
60019;BME280;45870;42.528;26.740;2023-04-30T05:59:43;99468.47;;;23.08;31.21
60019;BME280;45870;42.528;26.740;2023-04-30T06:02:08;99472.72;;;23.31;30.73
60019;BME280;45870;42.528;26.740;2023-04-30T06:04:34;99468.84;;;21.75;33.55
60019;BME280;45870;42.528;26.740;2023-04-30T06:07:00;99468.31;;;24.16;31.20
60019;BME280;45870;42.528;26.740;2023-04-30T06:09:26;99474.63;;;21.29;35.00
60019;BME280;45870;42.528;26.740;2023-04-30T06:11:52;99465.34;;;20.89;35.08
60019;BME280;45870;42.528;26.740;2023-04-30T06:14:18;99475.38;;;21.43;34.96
60019;BME280;45870;42.528;26.740;2023-04-30T06:16:44;99473.06;;;21.14;36.29
60019;BME280;45870;42.528;26.740;2023-04-30T06:19:10;99473.19;;;22.99;32.80
60019;BME280;45870;42.528;26.740;2023-04-30T06:21:37;99476.22;;;19.61;38.70
60019;BME280;45870;42.528;26.740;2023-04-30T06:24:03;99479.69;;;20.13;39.10
60019;BME280;45870;42.528;26.740;2023-04-30T06:26:28;99476.25;;;19.75;39.30
60019;BME280;45870;42.528;26.740;2023-04-30T06:28:55;99423.44;;;22.00;34.95
60019;BME280;45870;42.528;26.740;2023-04-30T06:31:21;99453.44;;;23.40;32.07
60019;BME280;45870;42.528;26.740;2023-04-30T06:33:49;99478.78;;;26.23;29.12
60019;BME280;45870;42.528;26.740;2023-04-30T06:36:15;99492.28;;;25.92;30.20
60019;BME280;45870;42.528;26.740;2023-04-30T06:38:41;99488.69;;;25.08;30.52
60019;BME280;45870;42.528;26.740;2023-04-30T06:41:07;99481.91;;;27.30;26.30
60019;BME280;45870;42.528;26.740;2023-04-30T06:43:33;99481.50;;;25.37;30.95
60019;BME280;45870;42.528;26.740;2023-04-30T06:45:58;99478.75;;;25.78;28.75
60019;BME280;45870;42.528;26.740;2023-04-30T06:48:24;99480.22;;;26.77;26.89
60019;BME280;45870;42.528;26.740;2023-04-30T06:50:50;99480.81;;;27.87;26.45
60019;BME280;45870;42.528;26.740;2023-04-30T06:53:15;99477.16;;;23.50;32.47
60019;BME280;45870;42.528;26.740;2023-04-30T06:55:41;99469.63;;;23.07;34.29
60019;BME280;45870;42.528;26.740;2023-04-30T06:58:07;99444.41;;;23.48;31.39
60019;BME280;45870;42.528;26.740;2023-04-30T07:00:36;99474.56;;;21.20;35.15
60019;BME280;45870;42.528;26.740;2023-04-30T07:03:01;99470.53;;;20.50;35.14
60019;BME280;45870;42.528;26.740;2023-04-30T07:05:31;99374.91;;;20.84;34.93
60019;BME280;45870;42.528;26.740;2023-04-30T07:08:01;99468.78;;;24.27;29.00
60019;BME280;45870;42.528;26.740;2023-04-30T07:10:28;99472.72;;;25.34;28.21
60019;BME280;45870;42.528;26.740;2023-04-30T07:12:54;99473.66;;;24.04;29.77
60019;BME280;45870;42.528;26.740;2023-04-30T07:15:20;99480.88;;;25.10;27.65
60019;BME280;45870;42.528;26.740;2023-04-30T07:17:46;99477.84;;;25.03;28.23
60019;BME280;45870;42.528;26.740;2023-04-30T07:20:12;99474.28;;;25.23;27.17
60019;BME280;45870;42.528;26.740;2023-04-30T07:22:39;99471.50;;;26.18;26.54
60019;BME280;45870;42.528;26.740;2023-04-30T07:25:06;99467.84;;;25.61;27.25
60019;BME280;45870;42.528;26.740;2023-04-30T07:27:31;99464.88;;;28.12;23.62
60019;BME280;45870;42.528;26.740;2023-04-30T07:29:57;99469.22;;;27.69;23.01
60019;BME280;45870;42.528;26.740;2023-04-30T07:32:23;99472.06;;;25.79;25.56
60019;BME280;45870;42.528;26.740;2023-04-30T07:34:52;99328.28;;;24.22;27.91
60019;BME280;45870;42.528;26.740;2023-04-30T07:37:18;99431.19;;;26.29;24.99
60019;BME280;45870;42.528;26.740;2023-04-30T07:39:44;99474.75;;;26.32;24.84
60019;BME280;45870;42.528;26.740;2023-04-30T07:42:09;99469.88;;;27.39;23.23
60019;BME280;45870;42.528;26.740;2023-04-30T07:44:36;99480.06;;;25.93;24.12
60019;BME280;45870;42.528;26.740;2023-04-30T07:47:02;99467.56;;;27.53;23.22
60019;BME280;45870;42.528;26.740;2023-04-30T07:49:27;99467.06;;;27.23;23.06
60019;BME280;45870;42.528;26.740;2023-04-30T07:51:53;99475.47;;;29.00;21.88
60019;BME280;45870;42.528;26.740;2023-04-30T07:54:19;99436.19;;;27.92;21.18
60019;BME280;45870;42.528;26.740;2023-04-30T07:56:44;99488.72;;;26.24;25.02
60019;BME280;45870;42.528;26.740;2023-04-30T07:59:13;99472.63;;;28.06;22.26
60019;BME280;45870;42.528;26.740;2023-04-30T08:01:39;99475.94;;;26.31;23.39
60019;BME280;45870;42.528;26.740;2023-04-30T08:04:05;99467.63;;;26.44;22.63
60019;BME280;45870;42.528;26.740;2023-04-30T08:06:31;99458.16;;;26.20;23.99
60019;BME280;45870;42.528;26.740;2023-04-30T08:08:57;99486.31;;;26.47;23.96
60019;BME280;45870;42.528;26.740;2023-04-30T08:11:25;99465.72;;;25.37;24.68
60019;BME280;45870;42.528;26.740;2023-04-30T08:13:53;99460.59;;;24.77;25.17
60019;BME280;45870;42.528;26.740;2023-04-30T08:16:18;99467.19;;;26.66;22.70
60019;BME280;45870;42.528;26.740;2023-04-30T08:18:44;99469.22;;;24.67;26.07
60019;BME280;45870;42.528;26.740;2023-04-30T08:21:11;99468.69;;;23.72;28.54
60019;BME280;45870;42.528;26.740;2023-04-30T08:23:37;99439.47;;;26.17;24.50
60019;BME280;45870;42.528;26.740;2023-04-30T08:26:03;99468.50;;;27.45;23.83
60019;BME280;45870;42.528;26.740;2023-04-30T08:28:29;99467.94;;;27.51;20.41
60019;BME280;45870;42.528;26.740;2023-04-30T08:30:55;99448.81;;;25.39;24.55
60019;BME280;45870;42.528;26.740;2023-04-30T08:33:21;99479.44;;;26.89;25.30
60019;BME280;45870;42.528;26.740;2023-04-30T08:35:46;99477.09;;;27.15;24.47
60019;BME280;45870;42.528;26.740;2023-04-30T08:38:12;99460.53;;;25.35;23.92
60019;BME280;45870;42.528;26.740;2023-04-30T08:40:39;99469.69;;;27.71;22.90
60019;BME280;45870;42.528;26.740;2023-04-30T08:43:06;99458.84;;;25.97;26.45
60019;BME280;45870;42.528;26.740;2023-04-30T08:45:33;99466.78;;;25.86;25.14
60019;BME280;45870;42.528;26.740;2023-04-30T08:48:01;99466.84;;;27.04;26.98
60019;BME280;45870;42.528;26.740;2023-04-30T08:50:27;99455.84;;;25.90;24.42
60019;BME280;45870;42.528;26.740;2023-04-30T08:52:53;99443.69;;;26.84;24.34
60019;BME280;45870;42.528;26.740;2023-04-30T08:55:18;99457.97;;;26.74;22.94
60019;BME280;45870;42.528;26.740;2023-04-30T08:57:44;99458.75;;;27.63;24.65
60019;BME280;45870;42.528;26.740;2023-04-30T09:00:10;99421.25;;;25.71;26.86
60019;BME280;45870;42.528;26.740;2023-04-30T09:02:40;99468.97;;;26.25;26.39
60019;BME280;45870;42.528;26.740;2023-04-30T09:05:11;99459.41;;;27.72;23.57
60019;BME280;45870;42.528;26.740;2023-04-30T09:07:42;99462.06;;;25.04;27.66
60019;BME280;45870;42.528;26.740;2023-04-30T09:10:17;99457.94;;;27.10;24.24
60019;BME280;45870;42.528;26.740;2023-04-30T09:12:57;99448.81;;;27.22;25.28
60019;BME280;45870;42.528;26.740;2023-04-30T09:15:23;99442.50;;;26.97;25.33
60019;BME280;45870;42.528;26.740;2023-04-30T09:17:49;99438.13;;;28.51;22.82
60019;BME280;45870;42.528;26.740;2023-04-30T09:20:14;99434.91;;;29.15;22.47
60019;BME280;45870;42.528;26.740;2023-04-30T09:22:41;99428.16;;;29.89;22.96
60019;BME280;45870;42.528;26.740;2023-04-30T09:25:08;99429.63;;;27.69;24.76
60019;BME280;45870;42.528;26.740;2023-04-30T09:27:34;99428.44;;;28.29;23.41
60019;BME280;45870;42.528;26.740;2023-04-30T09:30:00;99385.84;;;28.53;22.49
60019;BME280;45870;42.528;26.740;2023-04-30T09:32:26;99392.28;;;26.74;25.40
60019;BME280;45870;42.528;26.740;2023-04-30T09:34:52;99381.13;;;26.22;23.07
60019;BME280;45870;42.528;26.740;2023-04-30T09:37:17;99417.50;;;27.21;23.26
60019;BME280;45870;42.528;26.740;2023-04-30T09:39:52;99410.28;;;29.71;21.65
60019;BME280;45870;42.528;26.740;2023-04-30T09:42:18;99406.66;;;32.47;19.38
60019;BME280;45870;42.528;26.740;2023-04-30T09:44:44;99402.84;;;29.02;22.59
60019;BME280;45870;42.528;26.740;2023-04-30T09:47:11;99395.41;;;28.55;23.20
60019;BME280;45870;42.528;26.740;2023-04-30T09:49:41;99398.28;;;27.41;25.06
60019;BME280;45870;42.528;26.740;2023-04-30T09:52:07;99399.22;;;27.72;23.67
60019;BME280;45870;42.528;26.740;2023-04-30T09:54:34;99394.06;;;26.91;23.13
60019;BME280;45870;42.528;26.740;2023-04-30T09:57:01;99400.41;;;28.03;24.06
60019;BME280;45870;42.528;26.740;2023-04-30T09:59:31;99393.22;;;27.86;23.75
60019;BME280;45870;42.528;26.740;2023-04-30T10:02:00;99400.31;;;29.89;20.34
60019;BME280;45870;42.528;26.740;2023-04-30T10:04:28;99400.31;;;28.62;21.86
60019;BME280;45870;42.528;26.740;2023-04-30T10:06:56;99390.66;;;29.25;19.09
60019;BME280;45870;42.528;26.740;2023-04-30T10:09:27;99397.69;;;27.91;25.18
60019;BME280;45870;42.528;26.740;2023-04-30T10:11:55;99351.84;;;28.24;21.85
60019;BME280;45870;42.528;26.740;2023-04-30T10:14:23;99399.94;;;25.84;26.11
60019;BME280;45870;42.528;26.740;2023-04-30T10:16:59;99386.53;;;27.31;24.96
60019;BME280;45870;42.528;26.740;2023-04-30T10:19:30;99390.75;;;27.13;24.34
60019;BME280;45870;42.528;26.740;2023-04-30T10:21:57;99393.94;;;27.83;22.46
60019;BME280;45870;42.528;26.740;2023-04-30T10:24:25;99388.03;;;26.77;24.94
60019;BME280;45870;42.528;26.740;2023-04-30T10:26:51;99393.81;;;25.46;26.40
60019;BME280;45870;42.528;26.740;2023-04-30T10:29:18;99370.44;;;24.81;26.90
60019;BME280;45870;42.528;26.740;2023-04-30T10:31:46;99389.28;;;27.71;24.41
60019;BME280;45870;42.528;26.740;2023-04-30T10:37:10;99386.47;;;28.31;21.69
60019;BME280;45870;42.528;26.740;2023-04-30T10:39:39;99397.75;;;28.38;25.53
60019;BME280;45870;42.528;26.740;2023-04-30T10:42:07;99388.25;;;28.39;23.31
60019;BME280;45870;42.528;26.740;2023-04-30T10:44:37;99387.88;;;28.40;24.05
60019;BME280;45870;42.528;26.740;2023-04-30T10:47:05;99374.00;;;26.33;26.01
60019;BME280;45870;42.528;26.740;2023-04-30T10:49:31;99379.31;;;25.49;25.60
60019;BME280;45870;42.528;26.740;2023-04-30T10:52:01;99380.75;;;27.80;24.57
60019;BME280;45870;42.528;26.740;2023-04-30T10:57:16;99372.97;;;28.80;22.49
60019;BME280;45870;42.528;26.740;2023-04-30T11:02:43;99369.25;;;30.55;18.54
60019;BME280;45870;42.528;26.740;2023-04-30T11:05:10;99370.09;;;30.59;20.14
60019;BME280;45870;42.528;26.740;2023-04-30T11:07:37;99318.66;;;29.20;20.95
60019;BME280;45870;42.528;26.740;2023-04-30T11:10:12;99368.53;;;29.90;21.15
60019;BME280;45870;42.528;26.740;2023-04-30T11:12:40;99375.22;;;30.54;20.82
60019;BME280;45870;42.528;26.740;2023-04-30T11:15:13;99360.72;;;29.00;21.23
60019;BME280;45870;42.528;26.740;2023-04-30T11:17:42;99374.56;;;29.35;21.29
60019;BME280;45870;42.528;26.740;2023-04-30T11:20:11;99372.00;;;29.45;22.28
60019;BME280;45870;42.528;26.740;2023-04-30T11:22:38;99366.66;;;31.26;20.07
60019;BME280;45870;42.528;26.740;2023-04-30T11:25:10;99374.38;;;30.04;21.68
60019;BME280;45870;42.528;26.740;2023-04-30T11:27:44;99363.06;;;29.17;21.34
60019;BME280;45870;42.528;26.740;2023-04-30T11:30:15;99362.56;;;26.84;26.15
60019;BME280;45870;42.528;26.740;2023-04-30T11:32:44;99363.63;;;27.47;24.88
60019;BME280;45870;42.528;26.740;2023-04-30T11:35:13;99357.38;;;26.70;24.03
60019;BME280;45870;42.528;26.740;2023-04-30T11:37:43;99360.22;;;26.86;24.88
60019;BME280;45870;42.528;26.740;2023-04-30T11:40:11;99352.72;;;29.33;21.26
60019;BME280;45870;42.528;26.740;2023-04-30T11:42:41;99349.19;;;31.32;17.50
60019;BME280;45870;42.528;26.740;2023-04-30T11:45:16;99341.50;;;28.41;21.67
60019;BME280;45870;42.528;26.740;2023-04-30T11:47:47;99344.91;;;26.64;24.69
60019;BME280;45870;42.528;26.740;2023-04-30T11:50:22;99334.16;;;27.42;22.45
60019;BME280;45870;42.528;26.740;2023-04-30T11:52:56;99336.94;;;28.48;20.38
60019;BME280;45870;42.528;26.740;2023-04-30T11:55:24;99337.25;;;26.97;20.77
60019;BME280;45870;42.528;26.740;2023-04-30T11:57:53;99332.47;;;30.99;20.39
60019;BME280;45870;42.528;26.740;2023-04-30T12:00:24;99339.16;;;27.80;23.38
60019;BME280;45870;42.528;26.740;2023-04-30T12:02:51;99334.81;;;27.23;23.58
60019;BME280;45870;42.528;26.740;2023-04-30T12:05:19;99339.47;;;29.88;20.53
60019;BME280;45870;42.528;26.740;2023-04-30T12:08:06;99330.91;;;33.39;17.94
60019;BME280;45870;42.528;26.740;2023-04-30T12:10:33;99326.66;;;33.98;17.45
60019;BME280;45870;42.528;26.740;2023-04-30T12:12:59;99317.00;;;31.75;18.83
60019;BME280;45870;42.528;26.740;2023-04-30T12:15:25;99333.75;;;32.66;17.83
60019;BME280;45870;42.528;26.740;2023-04-30T12:17:53;99299.03;;;31.36;18.22
60019;BME280;45870;42.528;26.740;2023-04-30T12:20:20;99336.81;;;30.44;21.11
60019;BME280;45870;42.528;26.740;2023-04-30T12:22:47;99336.09;;;28.98;21.48
60019;BME280;45870;42.528;26.740;2023-04-30T12:25:15;99295.22;;;28.29;22.23
60019;BME280;45870;42.528;26.740;2023-04-30T12:27:45;99295.44;;;31.68;19.36
60019;BME280;45870;42.528;26.740;2023-04-30T12:30:12;99322.97;;;32.14;19.25
60019;BME280;45870;42.528;26.740;2023-04-30T12:32:43;99318.06;;;33.20;17.68
60019;BME280;45870;42.528;26.740;2023-04-30T12:35:14;99323.44;;;32.23;19.24
60019;BME280;45870;42.528;26.740;2023-04-30T12:38:04;99315.75;;;29.52;21.30
60019;BME280;45870;42.528;26.740;2023-04-30T12:40:30;99313.75;;;28.41;22.72
60019;BME280;45870;42.528;26.740;2023-04-30T12:43:05;99346.19;;;27.34;25.82
60019;BME280;45870;42.528;26.740;2023-04-30T12:45:51;99347.91;;;24.50;29.83
60019;BME280;45870;42.528;26.740;2023-04-30T12:48:18;99338.44;;;22.77;32.76
60019;BME280;45870;42.528;26.740;2023-04-30T12:50:52;99140.56;;;19.19;38.86
60019;BME280;45870;42.528;26.740;2023-04-30T12:53:19;99337.81;;;19.82;39.48
60019;BME280;45870;42.528;26.740;2023-04-30T12:56:11;99328.00;;;20.22;38.93
60019;BME280;45870;42.528;26.740;2023-04-30T12:58:38;99342.47;;;19.68;38.97
60019;BME280;45870;42.528;26.740;2023-04-30T13:01:04;99344.09;;;20.24;39.69
60019;BME280;45870;42.528;26.740;2023-04-30T13:03:30;99343.72;;;20.30;38.32
60019;BME280;45870;42.528;26.740;2023-04-30T13:05:56;99346.38;;;20.35;39.43
60019;BME280;45870;42.528;26.740;2023-04-30T13:08:23;99317.47;;;19.42;41.00
60019;BME280;45870;42.528;26.740;2023-04-30T13:10:49;99349.34;;;19.52;41.37